Time;durP1;ratioP1;P1;durP2;ratioP2;P2;SDS_P1;SDS_P2;PMS_P1;PMS_P2;Temp;Humidity;BMP_temperature;BMP_pressure;BME280_temperature;BME280_humidity;BME280_pressure;Samples;Min_cycle;Max_cycle;Signal;HPM_P1;HPM_P2
2023/03/13 00:02:11;;;;;;;8.20;3.27;;;11.30;1.00;;;;;;5040931;28;20721;-56
2023/03/13 00:04:37;;;;;;;7.43;4.00;;;11.20;1.00;;;;;;5038873;28;20287;-55
2023/03/13 00:07:03;;;;;;;6.73;3.30;;;11.30;1.00;;;;;;5043905;28;20658;-54
2023/03/13 00:09:29;;;;;;;5.23;3.43;;;11.30;1.00;;;;;;5047423;28;20542;-56
2023/03/13 00:11:55;;;;;;;8.27;3.10;;;11.20;1.00;;;;;;5043958;28;20550;-56
2023/03/13 00:14:21;;;;;;;7.10;3.80;;;11.30;1.00;;;;;;5039536;28;20443;-55
2023/03/13 00:16:46;;;;;;;8.20;4.23;;;11.30;1.00;;;;;;5056041;28;20195;-54
2023/03/13 00:19:12;;;;;;;8.50;4.07;;;11.30;1.00;;;;;;5059138;28;20185;-55
2023/03/13 00:21:39;;;;;;;7.80;4.00;;;11.30;1.00;;;;;;5053329;28;20207;-56
2023/03/13 00:24:06;;;;;;;8.27;3.70;;;11.30;1.00;;;;;;5042863;28;20204;-56
2023/03/13 00:26:32;;;;;;;10.13;3.43;;;11.30;1.00;;;;;;5038704;28;20462;-57
2023/03/13 00:28:58;;;;;;;12.77;4.50;;;11.30;1.00;;;;;;5040229;28;20954;-55
2023/03/13 00:31:30;;;;;;;12.67;3.87;;;11.30;1.00;;;;;;5041347;28;20216;-55
2023/03/13 00:33:59;;;;;;;8.90;3.97;;;11.30;1.00;;;;;;5041789;28;20287;-56
2023/03/13 00:36:27;;;;;;;12.53;4.23;;;11.40;1.00;;;;;;5037745;28;20424;-55
2023/03/13 00:38:54;;;;;;;8.93;3.40;;;11.30;1.00;;;;;;5039628;28;20458;-55
2023/03/13 00:41:24;;;;;;;11.20;3.50;;;11.40;1.00;;;;;;5044813;28;20454;-56
2023/03/13 00:43:51;;;;;;;9.57;3.77;;;11.30;1.00;;;;;;5044514;28;20428;-56
2023/03/13 00:46:19;;;;;;;9.57;3.53;;;11.40;1.00;;;;;;5052901;28;20787;-54
2023/03/13 00:48:45;;;;;;;11.07;4.33;;;11.40;1.00;;;;;;5045082;28;20462;-56
2023/03/13 00:51:10;;;;;;;11.83;3.53;;;11.40;1.00;;;;;;5049529;28;20463;-56
2023/03/13 00:53:36;;;;;;;9.03;4.23;;;11.50;1.00;;;;;;5041850;28;20514;-55
2023/03/13 00:56:03;;;;;;;9.13;3.90;;;11.50;1.00;;;;;;5048269;28;20504;-54
2023/03/13 00:58:32;;;;;;;8.93;3.30;;;11.50;1.00;;;;;;5048092;28;20185;-55
2023/03/13 01:01:09;;;;;;;15.83;4.23;;;11.50;1.00;;;;;;5051200;28;20433;-55
2023/03/13 01:03:35;;;;;;;10.70;3.40;;;11.50;1.00;;;;;;5043602;28;20461;-54
2023/03/13 01:06:04;;;;;;;6.87;3.43;;;11.50;1.00;;;;;;5047323;28;20863;-56
2023/03/13 01:08:30;;;;;;;10.37;3.73;;;11.40;1.00;;;;;;5044322;28;20429;-55
2023/03/13 01:11:08;;;;;;;7.90;3.20;;;11.50;1.00;;;;;;5043579;28;22817;-56
2023/03/13 01:13:34;;;;;;;8.60;3.13;;;11.50;1.00;;;;;;5046658;28;20478;-55
2023/03/13 01:16:06;;;;;;;14.10;3.20;;;11.50;1.00;;;;;;5038940;28;20432;-56
2023/03/13 01:18:33;;;;;;;12.57;3.93;;;11.50;1.00;;;;;;5038020;28;20425;-55
2023/03/13 01:20:59;;;;;;;9.10;3.70;;;11.50;1.00;;;;;;5038348;28;20450;-56
2023/03/13 01:23:25;;;;;;;6.57;3.60;;;11.60;1.00;;;;;;5040023;28;20983;-56
2023/03/13 01:25:52;;;;;;;9.87;3.43;;;11.50;1.00;;;;;;5040112;28;20243;-55
2023/03/13 01:28:17;;;;;;;6.00;2.93;;;11.60;1.00;;;;;;5038706;28;20774;-54
2023/03/13 01:30:43;;;;;;;11.23;3.37;;;11.60;1.00;;;;;;5039429;28;20458;-55
2023/03/13 01:33:09;;;;;;;7.27;2.83;;;11.50;1.00;;;;;;5038539;28;20191;-56
2023/03/13 01:35:34;;;;;;;12.77;3.90;;;11.60;1.00;;;;;;5040597;28;20268;-56
2023/03/13 01:38:00;;;;;;;10.30;3.83;;;11.60;1.00;;;;;;5048848;28;20185;-56
2023/03/13 01:40:26;;;;;;;6.30;3.50;;;11.60;1.00;;;;;;5046064;28;20215;-56
2023/03/13 01:42:54;;;;;;;13.33;4.33;;;11.50;1.00;;;;;;5046132;28;20642;-55
2023/03/13 01:45:58;;;;;;;13.47;4.27;;;11.50;1.00;;;;;;5047922;28;20188;-54
2023/03/13 01:48:32;;;;;;;5.23;3.13;;;11.50;1.00;;;;;;5043601;28;20844;-56
2023/03/13 01:51:00;;;;;;;13.13;3.13;;;11.50;1.00;;;;;;5048219;28;20416;-55
2023/03/13 01:53:28;;;;;;;8.73;3.40;;;11.50;1.00;;;;;;5045624;28;20478;-55
2023/03/13 01:55:56;;;;;;;12.63;3.87;;;11.50;1.00;;;;;;5043022;28;20509;-55
2023/03/13 01:58:22;;;;;;;7.07;3.20;;;11.50;1.00;;;;;;5045777;28;20534;-54
2023/03/13 02:00:48;;;;;;;13.40;4.40;;;11.60;1.00;;;;;;5044363;28;20517;-55
2023/03/13 02:03:18;;;;;;;13.80;4.67;;;11.50;1.00;;;;;;5043889;28;20718;-55
2023/03/13 02:05:46;;;;;;;8.13;3.23;;;11.50;1.00;;;;;;5044427;28;20576;-55
2023/03/13 02:08:24;;;;;;;11.00;3.37;;;11.50;1.00;;;;;;5041452;28;20441;-55
2023/03/13 02:10:57;;;;;;;11.37;3.87;;;11.40;1.00;;;;;;5040395;28;21013;-55
2023/03/13 02:13:24;;;;;;;9.97;2.80;;;11.40;1.00;;;;;;5036826;28;20447;-55
2023/03/13 02:15:50;;;;;;;11.93;3.73;;;11.20;1.00;;;;;;5044088;28;20480;-54
2023/03/13 02:18:16;;;;;;;16.57;3.33;;;11.20;1.00;;;;;;5044820;28;20837;-54
2023/03/13 02:20:42;;;;;;;7.23;3.57;;;11.20;1.00;;;;;;5045528;28;20176;-55
2023/03/13 02:23:46;;;;;;;12.70;3.47;;;11.20;1.00;;;;;;5042235;28;20489;-55
2023/03/13 02:26:12;;;;;;;14.40;3.83;;;11.10;1.00;;;;;;4967762;28;20444;-55
2023/03/13 02:28:38;;;;;;;7.00;3.10;;;11.20;1.00;;;;;;5035104;28;20450;-54
2023/03/13 02:31:04;;;;;;;14.07;3.20;;;11.20;1.00;;;;;;5042891;28;20919;-54
2023/03/13 02:33:34;;;;;;;11.93;3.63;;;11.20;1.00;;;;;;5046662;28;20432;-55
2023/03/13 02:36:02;;;;;;;10.23;3.37;;;11.20;1.00;;;;;;5043868;28;20541;-54
2023/03/13 02:38:30;;;;;;;10.67;3.43;;;11.00;1.00;;;;;;5048235;28;20413;-56
2023/03/13 02:40:59;;;;;;;16.90;3.57;;;10.90;1.00;;;;;;5050584;28;20439;-55
2023/03/13 02:43:29;;;;;;;8.60;3.20;;;11.00;1.00;;;;;;5044188;28;20444;-55
2023/03/13 02:46:10;;;;;;;13.80;5.20;;;11.20;1.00;;;;;;5047367;28;20449;-54
2023/03/13 02:48:49;;;;;;;9.40;3.20;;;11.10;1.00;;;;;;5048772;28;20478;-54
2023/03/13 02:51:19;;;;;;;6.53;2.57;;;11.20;1.00;;;;;;5047446;28;20474;-54
2023/03/13 02:53:47;;;;;;;13.17;3.57;;;11.20;1.00;;;;;;5048794;28;20450;-54
2023/03/13 02:56:16;;;;;;;10.33;3.00;;;11.20;1.00;;;;;;5047491;28;20812;-53
2023/03/13 02:58:42;;;;;;;7.87;2.83;;;11.30;1.00;;;;;;5050231;28;20418;-55
2023/03/13 03:01:08;;;;;;;12.90;3.13;;;11.30;1.00;;;;;;5047438;28;20458;-54
2023/03/13 03:03:35;;;;;;;12.47;3.93;;;11.30;1.00;;;;;;5044239;28;21061;-53
2023/03/13 03:06:03;;;;;;;6.37;2.70;;;11.30;1.00;;;;;;5049174;28;21054;-55
2023/03/13 03:08:29;;;;;;;9.23;2.83;;;11.40;1.00;;;;;;5043373;28;20416;-54
2023/03/13 03:10:54;;;;;;;18.03;3.40;;;11.30;1.00;;;;;;5048967;28;20453;-55
2023/03/13 03:13:20;;;;;;;16.83;3.90;;;11.30;1.00;;;;;;5050126;28;20450;-54
2023/03/13 03:15:45;;;;;;;16.40;3.77;;;11.40;1.00;;;;;;5039290;28;20195;-54
2023/03/13 03:18:11;;;;;;;12.27;2.73;;;11.40;1.00;;;;;;5042035;28;20586;-53
2023/03/13 03:20:37;;;;;;;9.17;3.53;;;11.40;1.00;;;;;;5041356;28;20193;-54
2023/03/13 03:23:02;;;;;;;12.87;3.70;;;11.40;1.00;;;;;;5041337;28;20250;-55
2023/03/13 03:25:28;;;;;;;8.27;2.90;;;11.40;1.00;;;;;;5040276;28;20188;-54
2023/03/13 03:27:54;;;;;;;9.23;3.10;;;11.40;1.00;;;;;;5040915;28;20192;-55
2023/03/13 03:30:19;;;;;;;11.50;2.90;;;11.40;1.00;;;;;;5043087;28;20192;-55
2023/03/13 03:32:45;;;;;;;10.10;3.93;;;11.20;1.00;;;;;;5050047;28;20577;-54
2023/03/13 03:35:10;;;;;;;9.50;3.10;;;11.00;1.00;;;;;;5049095;28;20224;-54
2023/03/13 03:37:36;;;;;;;10.30;3.40;;;11.20;1.00;;;;;;5045610;28;20193;-55
2023/03/13 03:40:04;;;;;;;6.40;3.50;;;11.20;1.00;;;;;;5047599;28;20275;-55
2023/03/13 03:42:30;;;;;;;11.30;3.50;;;11.30;1.00;;;;;;5047405;28;20673;-54
2023/03/13 03:44:55;;;;;;;13.57;3.60;;;11.20;1.00;;;;;;5047858;28;20450;-55
2023/03/13 03:47:21;;;;;;;9.40;3.07;;;11.20;1.00;;;;;;5055151;28;20195;-54
2023/03/13 03:49:46;;;;;;;11.30;3.10;;;11.20;1.00;;;;;;5046505;28;20670;-54
2023/03/13 03:52:12;;;;;;;10.33;3.20;;;11.30;1.00;;;;;;5049397;28;20251;-56
2023/03/13 03:54:38;;;;;;;7.80;3.03;;;11.30;1.00;;;;;;5042180;28;20220;-54
2023/03/13 03:57:04;;;;;;;9.00;3.20;;;11.30;1.00;;;;;;5048306;28;20184;-53
2023/03/13 03:59:29;;;;;;;9.40;3.10;;;11.40;1.00;;;;;;5045187;28;20208;-54
2023/03/13 04:01:55;;;;;;;13.27;2.90;;;11.50;1.00;;;;;;5046117;28;20454;-54
2023/03/13 04:04:20;;;;;;;7.53;2.13;;;11.50;1.00;;;;;;5049185;28;20682;-55
2023/03/13 04:06:46;;;;;;;9.00;2.53;;;11.40;1.00;;;;;;5047213;28;20192;-55
2023/03/13 04:09:12;;;;;;;7.63;2.60;;;11.40;1.00;;;;;;5049767;28;20288;-55
2023/03/13 04:11:37;;;;;;;11.30;3.00;;;11.30;1.00;;;;;;5044128;28;20247;-54
2023/03/13 04:14:03;;;;;;;8.67;2.83;;;11.30;1.00;;;;;;5046109;28;20208;-54
2023/03/13 04:16:28;;;;;;;10.87;2.70;;;11.30;1.00;;;;;;5043437;28;20268;-54
2023/03/13 04:18:54;;;;;;;15.47;3.60;;;11.20;1.00;;;;;;5045263;28;20189;-54
2023/03/13 04:21:20;;;;;;;12.70;3.07;;;11.10;1.00;;;;;;5047542;28;20200;-55
2023/03/13 04:23:45;;;;;;;8.10;2.90;;;11.10;1.00;;;;;;5044784;28;20598;-55
2023/03/13 04:26:11;;;;;;;11.70;3.13;;;11.10;1.00;;;;;;5046592;28;20250;-55
2023/03/13 04:28:37;;;;;;;7.67;3.60;;;11.10;1.00;;;;;;5046088;28;20676;-55
2023/03/13 04:31:02;;;;;;;14.23;3.97;;;11.10;1.00;;;;;;5045722;28;20553;-55
2023/03/13 04:33:28;;;;;;;11.40;3.90;;;11.00;1.00;;;;;;5045434;28;20236;-54
2023/03/13 04:35:54;;;;;;;11.27;3.60;;;11.00;1.00;;;;;;5036453;28;20543;-54
2023/03/13 04:38:19;;;;;;;8.60;2.83;;;10.90;1.00;;;;;;5040007;28;20185;-54
2023/03/13 04:40:46;;;;;;;9.43;3.30;;;10.80;1.00;;;;;;5040438;28;20514;-53
2023/03/13 04:43:12;;;;;;;22.07;4.77;;;10.70;1.00;;;;;;5045305;28;20215;-55
2023/03/13 04:45:38;;;;;;;15.50;3.80;;;10.70;1.00;;;;;;5041097;28;20451;-54
2023/03/13 04:48:03;;;;;;;11.67;3.20;;;10.70;1.00;;;;;;5045557;28;20172;-55
2023/03/13 04:50:29;;;;;;;11.13;3.37;;;10.70;1.00;;;;;;5043152;28;20180;-55
2023/03/13 04:52:54;;;;;;;13.00;3.23;;;10.70;1.00;;;;;;5043995;28;20216;-55
2023/03/13 04:55:20;;;;;;;10.33;4.03;;;10.70;1.00;;;;;;5039932;28;20196;-54
2023/03/13 04:57:46;;;;;;;11.23;4.13;;;10.70;1.00;;;;;;5048007;28;20200;-55
2023/03/13 05:00:12;;;;;;;12.07;3.33;;;10.70;1.00;;;;;;5045670;28;20192;-55
2023/03/13 05:02:37;;;;;;;8.30;3.17;;;10.70;1.00;;;;;;5044283;28;20917;-55
2023/03/13 05:05:03;;;;;;;13.93;3.00;;;10.60;1.00;;;;;;5046111;28;20451;-55
2023/03/13 05:07:29;;;;;;;8.83;3.00;;;10.70;1.00;;;;;;5043523;28;20251;-54
2023/03/13 05:09:54;;;;;;;7.10;3.00;;;10.60;1.00;;;;;;5042752;28;20960;-54
2023/03/13 05:12:20;;;;;;;10.50;3.10;;;10.60;1.00;;;;;;5040923;28;20212;-54
2023/03/13 05:14:46;;;;;;;16.03;3.30;;;10.50;1.00;;;;;;5038611;28;20209;-54
2023/03/13 05:17:11;;;;;;;10.20;3.50;;;10.50;1.00;;;;;;5035883;28;20189;-55
2023/03/13 05:19:37;;;;;;;17.07;3.60;;;10.50;1.00;;;;;;5037757;28;20625;-56
2023/03/13 05:22:03;;;;;;;11.77;3.60;;;10.50;1.00;;;;;;5037004;28;20193;-54
2023/03/13 05:24:28;;;;;;;9.17;3.40;;;10.50;1.00;;;;;;5037988;28;20192;-54
2023/03/13 05:26:54;;;;;;;9.50;4.40;;;10.50;1.00;;;;;;5039460;28;20201;-56
2023/03/13 05:29:20;;;;;;;12.97;3.43;;;10.50;1.00;;;;;;5038811;28;20192;-55
2023/03/13 05:31:45;;;;;;;7.27;3.10;;;10.60;1.00;;;;;;5045463;28;20208;-54
2023/03/13 05:34:11;;;;;;;5.80;2.53;;;10.50;1.00;;;;;;5047915;28;20189;-55
2023/03/13 05:36:36;;;;;;;16.03;4.77;;;10.70;1.00;;;;;;5048090;28;20188;-55
2023/03/13 05:39:02;;;;;;;9.00;3.30;;;10.60;1.00;;;;;;5046603;28;20534;-56
2023/03/13 05:41:28;;;;;;;14.27;3.13;;;10.60;1.00;;;;;;5043387;28;20211;-54
2023/03/13 05:43:54;;;;;;;19.27;4.73;;;10.60;1.00;;;;;;5043328;28;20450;-56
2023/03/13 05:46:19;;;;;;;11.63;3.67;;;10.60;1.00;;;;;;5045018;28;20652;-55
2023/03/13 05:48:45;;;;;;;17.57;4.00;;;10.70;1.00;;;;;;5045367;28;20234;-54
2023/03/13 05:51:11;;;;;;;11.20;3.30;;;10.70;1.00;;;;;;5047267;28;20209;-54
2023/03/13 05:53:37;;;;;;;7.93;3.77;;;10.70;1.00;;;;;;5049986;28;20522;-55
2023/03/13 05:56:03;;;;;;;7.17;3.00;;;10.70;1.00;;;;;;5050310;28;20505;-55
2023/03/13 05:58:29;;;;;;;9.67;3.50;;;10.80;1.00;;;;;;5053979;28;20235;-55
2023/03/13 06:00:54;;;;;;;15.00;4.30;;;10.90;1.00;;;;;;5051979;28;20446;-53
2023/03/13 06:03:20;;;;;;;15.23;3.90;;;10.90;1.00;;;;;;5046806;28;20228;-55
2023/03/13 06:05:45;;;;;;;6.43;3.33;;;11.00;1.00;;;;;;5050836;28;20780;-55
2023/03/13 06:08:11;;;;;;;8.67;3.60;;;11.00;1.00;;;;;;5056111;28;20196;-54
2023/03/13 06:10:37;;;;;;;12.70;4.80;;;11.00;1.00;;;;;;5049072;28;20259;-55
2023/03/13 06:13:02;;;;;;;14.50;3.77;;;11.00;1.00;;;;;;5050346;28;20307;-56
2023/03/13 06:15:28;;;;;;;11.17;4.33;;;11.00;1.00;;;;;;5046224;28;20567;-55
2023/03/13 06:17:54;;;;;;;8.60;4.17;;;11.10;1.00;;;;;;5048834;28;20195;-55
2023/03/13 06:20:19;;;;;;;11.40;4.47;;;11.00;1.00;;;;;;5049354;28;20180;-54
2023/03/13 06:22:45;;;;;;;9.60;4.00;;;11.00;1.00;;;;;;5049902;28;20585;-54
2023/03/13 06:25:10;;;;;;;11.40;5.20;;;11.00;1.00;;;;;;5053302;28;20262;-54
2023/03/13 06:27:36;;;;;;;13.43;5.60;;;11.10;1.00;;;;;;5046367;28;20699;-54
2023/03/13 06:30:03;;;;;;;11.80;4.33;;;11.10;1.00;;;;;;5048190;28;20195;-55
2023/03/13 06:32:28;;;;;;;10.53;4.27;;;11.20;1.00;;;;;;5046649;28;20307;-54
2023/03/13 06:34:54;;;;;;;12.17;4.70;;;11.30;1.00;;;;;;5047918;28;20504;-55
2023/03/13 06:37:19;;;;;;;7.67;4.90;;;11.30;1.00;;;;;;5045354;28;20588;-55
2023/03/13 06:39:45;;;;;;;16.03;7.23;;;11.30;1.00;;;;;;5046874;28;20172;-54
2023/03/13 06:42:10;;;;;;;17.27;6.60;;;11.40;1.00;;;;;;5047371;28;20192;-54
2023/03/13 06:44:36;;;;;;;14.00;5.57;;;11.40;1.00;;;;;;5046709;28;20371;-53
2023/03/13 06:47:02;;;;;;;9.97;5.77;;;11.40;1.00;;;;;;5044413;28;20185;-54
2023/03/13 06:49:27;;;;;;;9.40;5.67;;;11.50;1.00;;;;;;5047312;28;20208;-54
2023/03/13 06:51:56;;;;;;;17.17;7.00;;;11.50;1.00;;;;;;5058276;28;20200;-55
2023/03/13 06:54:22;;;;;;;14.03;7.50;;;11.50;1.00;;;;;;5052861;28;20238;-54
2023/03/13 06:56:47;;;;;;;12.60;6.47;;;11.50;1.00;;;;;;5042085;28;20543;-55
2023/03/13 06:59:13;;;;;;;13.87;7.10;;;11.50;1.00;;;;;;5048538;28;20665;-54
2023/03/13 07:01:38;;;;;;;12.27;6.77;;;11.60;1.00;;;;;;5046742;28;20239;-54
2023/03/13 07:04:04;;;;;;;13.30;5.93;;;11.60;1.00;;;;;;5045440;28;20664;-53
2023/03/13 07:06:31;;;;;;;7.40;4.70;;;11.70;1.00;;;;;;5053628;28;20261;-54
2023/03/13 07:08:56;;;;;;;15.67;5.73;;;11.80;1.00;;;;;;5048538;28;20860;-55
2023/03/13 07:11:22;;;;;;;10.27;5.77;;;11.80;1.00;;;;;;5045509;28;20301;-56
2023/03/13 07:13:47;;;;;;;11.40;5.60;;;11.70;1.00;;;;;;5044856;28;20188;-54
2023/03/13 07:16:13;;;;;;;10.13;5.40;;;11.80;1.00;;;;;;5053139;28;20208;-55
2023/03/13 07:18:40;;;;;;;8.37;4.13;;;11.80;1.00;;;;;;5052138;28;20199;-54
2023/03/13 07:21:06;;;;;;;9.23;4.40;;;11.90;1.00;;;;;;5063988;28;20720;-55
2023/03/13 07:23:33;;;;;;;9.90;5.13;;;12.00;1.00;;;;;;5068724;28;20438;-55
2023/03/13 07:26:19;;;;;;;7.10;4.37;;;12.00;1.00;;;;;;5049686;28;20196;-55
2023/03/13 07:28:45;;;;;;;9.40;4.37;;;12.10;1.00;;;;;;5050644;28;20441;-55
2023/03/13 07:31:19;;;;;;;5.53;2.90;;;12.20;1.00;;;;;;5053035;28;20441;-54
2023/03/13 07:33:44;;;;;;;5.30;2.97;;;12.20;1.00;;;;;;5048208;28;20245;-54
2023/03/13 07:36:11;;;;;;;7.10;3.53;;;12.20;1.00;;;;;;5050277;28;20477;-56
2023/03/13 07:38:37;;;;;;;7.53;3.07;;;12.20;1.00;;;;;;5049824;28;20251;-55
2023/03/13 07:41:05;;;;;;;3.70;1.80;;;12.30;1.00;;;;;;5047054;28;20960;-54
2023/03/13 07:43:31;;;;;;;8.13;3.10;;;12.50;1.00;;;;;;5048652;28;20184;-54
2023/03/13 07:46:01;;;;;;;5.80;2.70;;;12.70;1.00;;;;;;5048603;28;20559;-54
2023/03/13 07:48:33;;;;;;;6.63;2.60;;;12.50;1.00;;;;;;5056139;28;20633;-54
2023/03/13 07:50:59;;;;;;;7.87;3.10;;;12.40;1.00;;;;;;5047636;28;20806;-55
2023/03/13 07:53:26;;;;;;;5.67;2.60;;;12.50;1.00;;;;;;5052669;28;20470;-54
2023/03/13 07:55:59;;;;;;;9.87;2.93;;;12.50;1.00;;;;;;5050380;28;20448;-55
2023/03/13 07:58:27;;;;;;;4.53;1.93;;;12.40;1.00;;;;;;5050393;28;20421;-54
2023/03/13 08:00:53;;;;;;;10.60;3.10;;;12.50;1.00;;;;;;5036495;28;20471;-54
2023/03/13 08:03:18;;;;;;;8.57;2.73;;;12.50;1.00;;;;;;5047703;28;20549;-56
2023/03/13 08:05:44;;;;;;;7.00;2.90;;;12.50;1.00;;;;;;5046871;28;20511;-54
2023/03/13 08:08:10;;;;;;;7.90;2.93;;;12.40;1.00;;;;;;5050862;28;20717;-58
2023/03/13 08:10:36;;;;;;;6.37;2.70;;;12.50;1.00;;;;;;5049764;28;20521;-57
2023/03/13 08:13:01;;;;;;;6.70;3.10;;;12.50;1.00;;;;;;5049079;28;20224;-55
2023/03/13 08:15:27;;;;;;;4.90;3.07;;;12.50;1.00;;;;;;5048195;28;20180;-54
2023/03/13 08:17:53;;;;;;;6.00;3.13;;;12.50;1.00;;;;;;5049432;28;20643;-55
2023/03/13 08:20:19;;;;;;;8.30;3.73;;;12.60;1.00;;;;;;5055805;28;20203;-56
2023/03/13 08:22:45;;;;;;;6.57;3.93;;;12.40;1.00;;;;;;5051986;28;20792;-54
2023/03/13 08:25:12;;;;;;;9.10;4.27;;;12.40;1.00;;;;;;5046792;28;20502;-54
2023/03/13 08:27:37;;;;;;;7.73;4.30;;;12.40;1.00;;;;;;5047612;28;20188;-54
2023/03/13 08:30:04;;;;;;;11.30;5.63;;;12.30;1.00;;;;;;5046572;28;20429;-54
2023/03/13 08:32:34;;;;;;;11.17;4.30;;;12.20;1.00;;;;;;5048925;28;20466;-54
2023/03/13 08:34:59;;;;;;;8.60;5.07;;;12.10;1.00;;;;;;5048748;28;20478;-53
2023/03/13 08:37:25;;;;;;;8.93;5.63;;;12.10;1.00;;;;;;5050880;28;20444;-55
2023/03/13 08:39:53;;;;;;;8.03;6.63;;;12.00;1.00;;;;;;5056655;28;20192;-53
2023/03/13 08:42:18;;;;;;;9.27;5.80;;;12.00;1.00;;;;;;5041979;28;20203;-55
2023/03/13 08:44:44;;;;;;;7.87;3.60;;;12.00;1.00;;;;;;5043300;28;20450;-55
2023/03/13 08:47:09;;;;;;;10.40;3.00;;;12.00;1.00;;;;;;5049817;28;20189;-56
2023/03/13 08:49:35;;;;;;;4.30;2.60;;;12.40;1.00;;;;;;5042056;28;20234;-56
2023/03/13 08:52:04;;;;;;;6.83;2.63;;;12.50;1.00;;;;;;5050536;28;20685;-55
2023/03/13 08:54:30;;;;;;;4.10;2.40;;;12.60;1.00;;;;;;5049707;28;20704;-55
2023/03/13 08:56:55;;;;;;;4.33;2.97;;;12.90;1.00;;;;;;5038459;28;20409;-54
2023/03/13 08:59:21;;;;;;;3.63;2.20;;;12.90;1.00;;;;;;5038256;28;20188;-54
2023/03/13 09:01:47;;;;;;;3.23;2.40;;;12.80;1.00;;;;;;5045438;28;20283;-55
2023/03/13 09:04:13;;;;;;;5.53;2.57;;;12.90;1.00;;;;;;5050354;28;20180;-54
2023/03/13 09:06:39;;;;;;;4.70;2.17;;;13.00;1.00;;;;;;5046863;28;20211;-54
2023/03/13 09:09:06;;;;;;;3.73;1.90;;;13.10;1.00;;;;;;5060827;28;20409;-55
2023/03/13 09:11:32;;;;;;;2.97;2.43;;;13.10;1.00;;;;;;5052431;28;20211;-55
2023/03/13 09:13:58;;;;;;;4.87;2.50;;;13.30;1.00;;;;;;5054216;28;20443;-54
2023/03/13 09:16:27;;;;;;;2.40;1.90;;;13.20;1.00;;;;;;5050665;28;20500;-54
2023/03/13 09:18:53;;;;;;;4.30;2.70;;;13.30;1.00;;;;;;5045333;28;20485;-55
2023/03/13 09:21:21;;;;;;;9.13;4.60;;;13.20;1.00;;;;;;5050123;28;20447;-55
2023/03/13 09:23:47;;;;;;;6.90;4.37;;;12.90;1.00;;;;;;5050074;28;20919;-55
2023/03/13 09:26:13;;;;;;;10.57;4.37;;;12.70;1.00;;;;;;5053516;28;20430;-56
2023/03/13 09:28:42;;;;;;;5.53;3.93;;;12.50;1.00;;;;;;5045816;28;20263;-55
2023/03/13 09:31:14;;;;;;;5.87;2.33;;;12.50;1.00;;;;;;5064526;28;20442;-54
2023/03/13 09:33:40;;;;;;;6.80;2.20;;;12.60;1.00;;;;;;5052796;28;20458;-54
2023/03/13 09:36:07;;;;;;;5.77;1.90;;;12.70;1.00;;;;;;5046670;28;20464;-55
2023/03/13 09:38:34;;;;;;;4.60;2.93;;;12.90;1.00;;;;;;5049762;28;20417;-54
2023/03/13 09:41:23;;;;;;;4.33;2.47;;;13.00;1.00;;;;;;5040649;28;20417;-55
2023/03/13 09:44:04;;;;;;;5.20;3.03;;;13.00;1.00;;;;;;5044115;28;20426;-54
2023/03/13 09:46:51;;;;;;;7.17;3.57;;;13.00;1.00;;;;;;5047631;28;20479;-55
2023/03/13 09:49:36;;;;;;;5.93;4.33;;;12.90;1.00;;;;;;5045529;28;20770;-55
2023/03/13 09:52:20;;;;;;;3.93;2.10;;;12.90;1.00;;;;;;5046857;28;20445;-56
2023/03/13 09:55:24;;;;;;;4.90;2.67;;;12.90;1.00;;;;;;5048784;28;20442;-54
2023/03/13 09:57:54;;;;;;;10.60;4.30;;;13.00;1.00;;;;;;5003812;28;20419;-55
2023/03/13 10:00:26;;;;;;;7.50;3.50;;;13.10;1.00;;;;;;5040959;28;20978;-55
2023/03/13 10:03:11;;;;;;;8.20;3.00;;;13.20;1.00;;;;;;5056641;28;20435;-54
2023/03/13 10:05:45;;;;;;;2.43;1.50;;;13.30;1.00;;;;;;5044678;28;20475;-55
2023/03/13 10:08:37;;;;;;;5.83;2.77;;;13.50;1.00;;;;;;5048027;28;20406;-54
2023/03/13 10:11:10;;;;;;;6.70;2.87;;;13.60;1.00;;;;;;5042063;28;20453;-55
2023/03/13 10:13:57;;;;;;;2.37;1.90;;;13.80;1.00;;;;;;5046287;28;21157;-55
2023/03/13 10:16:28;;;;;;;4.43;2.13;;;13.80;1.00;;;;;;5047768;28;20417;-56
2023/03/13 10:18:57;;;;;;;3.50;1.90;;;13.90;1.00;;;;;;5043810;28;20417;-54
2023/03/13 10:21:31;;;;;;;3.10;1.70;;;14.00;1.00;;;;;;5053803;28;20472;-54
2023/03/13 10:24:09;;;;;;;5.17;2.60;;;14.00;1.00;;;;;;5046284;28;20456;-54
2023/03/13 10:26:36;;;;;;;3.20;2.20;;;14.00;1.00;;;;;;5036826;28;20443;-54
2023/03/13 10:29:18;;;;;;;4.10;1.70;;;14.00;1.00;;;;;;5037683;28;20481;-55
2023/03/13 10:31:54;;;;;;;6.00;1.70;;;14.10;1.00;;;;;;5049123;28;20785;-54
2023/03/13 10:34:20;;;;;;;1.80;1.40;;;14.40;1.00;;;;;;5048132;28;20424;-56
2023/03/13 10:36:48;;;;;;;5.30;1.40;;;14.60;1.00;;;;;;5057726;28;20437;-55
2023/03/13 10:39:19;;;;;;;3.07;1.53;;;14.60;1.00;;;;;;5049632;28;20176;-54
2023/03/13 10:41:46;;;;;;;2.03;1.43;;;14.70;1.00;;;;;;5058296;28;20517;-55
2023/03/13 10:44:20;;;;;;;2.83;2.03;;;14.90;1.00;;;;;;5048055;28;20504;-55
2023/03/13 10:46:48;;;;;;;2.70;1.40;;;15.20;1.00;;;;;;5043296;28;20420;-54
2023/03/13 10:49:22;;;;;;;1.70;1.60;;;15.40;1.00;;;;;;5041871;28;20458;-55
2023/03/13 10:52:00;;;;;;;1.80;1.20;;;15.50;1.00;;;;;;5055370;28;20558;-53
2023/03/13 10:54:34;;;;;;;2.93;0.93;;;15.60;1.00;;;;;;5048029;28;20474;-54
2023/03/13 10:57:24;;;;;;;2.20;1.10;;;15.60;1.00;;;;;;5052364;28;20457;-54
2023/03/13 10:59:51;;;;;;;2.50;1.17;;;15.70;1.00;;;;;;5051842;28;20434;-54
2023/03/13 11:02:30;;;;;;;0.93;0.80;;;15.70;1.00;;;;;;5056207;28;20478;-54
2023/03/13 11:04:56;;;;;;;2.43;1.20;;;15.90;1.00;;;;;;5048738;28;20943;-55
2023/03/13 11:07:37;;;;;;;1.60;1.00;;;16.10;1.00;;;;;;5070362;28;20510;-54
2023/03/13 11:10:22;;;;;;;4.53;1.70;;;16.00;1.00;;;;;;5059010;28;20188;-55
2023/03/13 11:12:55;;;;;;;1.93;1.00;;;15.90;1.00;;;;;;5051103;28;20608;-55
2023/03/13 11:15:23;;;;;;;2.63;1.17;;;16.00;1.00;;;;;;5059220;28;20449;-55
2023/03/13 11:18:15;;;;;;;1.20;1.10;;;16.10;1.00;;;;;;5046890;28;20498;-55
2023/03/13 11:20:44;;;;;;;1.23;0.87;;;16.20;1.00;;;;;;5045579;28;20450;-55
2023/03/13 11:23:17;;;;;;;1.80;1.10;;;16.20;1.00;;;;;;5050507;28;20866;-56
2023/03/13 11:25:57;;;;;;;1.10;0.93;;;16.20;1.00;;;;;;5049587;28;20921;-55
2023/03/13 11:28:47;;;;;;;0.83;0.80;;;15.90;1.00;;;;;;5049599;28;20472;-54
2023/03/13 11:31:23;;;;;;;1.10;1.00;;;15.80;1.00;;;;;;5031872;28;20454;-54
2023/03/13 11:34:08;;;;;;;3.37;1.30;;;15.80;1.00;;;;;;5051919;28;20466;-54
2023/03/13 11:36:37;;;;;;;1.70;1.07;;;15.50;1.00;;;;;;5052822;28;20397;-55
2023/03/13 11:39:29;;;;;;;3.03;1.00;;;15.50;1.00;;;;;;5050450;28;20442;-54
2023/03/13 11:42:11;;;;;;;1.70;1.23;;;15.40;1.00;;;;;;5048536;28;20442;-55
2023/03/13 11:45:14;;;;;;;1.43;1.03;;;15.30;1.00;;;;;;5049268;28;20964;-55
2023/03/13 11:47:55;;;;;;;2.33;1.30;;;15.30;1.00;;;;;;5047988;28;20812;-55
2023/03/13 11:50:51;;;;;;;2.17;0.80;;;15.20;1.00;;;;;;5047782;28;20438;-54
2023/03/13 11:53:39;;;;;;;1.20;0.97;;;15.10;1.00;;;;;;5051697;28;20505;-54
2023/03/13 11:56:07;;;;;;;1.30;1.20;;;15.10;1.00;;;;;;5046954;28;20425;-55
2023/03/13 11:58:45;;;;;;;1.60;1.30;;;15.20;1.00;;;;;;5046295;28;20418;-56
2023/03/13 12:01:16;;;;;;;2.60;1.00;;;15.20;1.00;;;;;;5051602;28;20508;-54
2023/03/13 12:03:52;;;;;;;1.70;1.00;;;15.20;1.00;;;;;;5056950;28;20850;-55
2023/03/13 12:06:36;;;;;;;1.80;1.57;;;15.40;1.00;;;;;;5070214;28;20466;-54
2023/03/13 12:09:14;;;;;;;2.23;1.10;;;15.40;1.00;;;;;;5063433;28;20413;-54
2023/03/13 12:11:51;;;;;;;1.73;0.80;;;15.50;1.00;;;;;;5062914;28;20523;-55
2023/03/13 12:14:29;;;;;;;0.80;0.80;;;15.40;1.00;;;;;;5058129;28;20451;-54
2023/03/13 12:17:27;;;;;;;1.10;1.00;;;15.40;1.00;;;;;;5062563;28;20500;-55
2023/03/13 12:20:31;;;;;;;1.50;1.20;;;15.50;1.00;;;;;;5025143;28;20906;-54
2023/03/13 12:23:19;;;;;;;1.10;1.00;;;15.70;1.00;;;;;;5045032;28;20779;-55
2023/03/13 12:25:47;;;;;;;2.40;1.10;;;15.60;1.00;;;;;;5047136;28;20425;-55
2023/03/13 12:28:23;;;;;;;1.43;0.93;;;15.80;1.00;;;;;;5056966;28;20450;-55
2023/03/13 12:31:06;;;;;;;1.70;1.60;;;15.90;1.00;;;;;;5047508;28;20471;-54
2023/03/13 12:33:50;;;;;;;0.83;0.80;;;16.00;1.00;;;;;;5052300;28;20429;-56
2023/03/13 12:36:28;;;;;;;1.03;0.80;;;16.20;1.00;;;;;;5043194;28;20811;-55
2023/03/13 12:39:06;;;;;;;1.07;0.97;;;16.40;1.00;;;;;;5055158;28;20417;-55
2023/03/13 12:42:12;;;;;;;2.43;1.03;;;16.80;1.00;;;;;;5048723;28;20421;-55
2023/03/13 12:44:39;;;;;;;1.10;1.00;;;16.90;1.00;;;;;;5010253;28;20489;-54
2023/03/13 12:47:16;;;;;;;1.53;1.20;;;17.00;1.00;;;;;;5039645;28;20456;-55
2023/03/13 12:50:04;;;;;;;1.20;0.90;;;17.00;1.00;;;;;;5036386;28;20812;-55
2023/03/13 12:52:59;;;;;;;1.70;1.00;;;17.20;1.00;;;;;;5047651;28;20466;-55
2023/03/13 12:55:43;;;;;;;3.53;1.00;;;17.40;1.00;;;;;;5050767;28;20800;-54
2023/03/13 12:58:36;;;;;;;2.10;0.80;;;17.40;1.00;;;;;;5046350;28;20922;-57
2023/03/13 13:01:04;;;;;;;2.77;1.20;;;17.50;1.00;;;;;;5048869;28;20450;-56
2023/03/13 13:03:58;;;;;;;1.07;0.90;;;17.40;1.00;;;;;;5050128;28;20895;-56
2023/03/13 13:06:26;;;;;;;1.50;0.80;;;17.50;1.00;;;;;;5052867;28;20426;-54
2023/03/13 13:08:51;;;;;;;0.83;0.83;;;17.70;1.00;;;;;;5051689;28;20499;-56